Time;durP1;ratioP1;P1;durP2;ratioP2;P2;SDS_P1;SDS_P2;PMS_P1;PMS_P2;Temp;Humidity;BMP_temperature;BMP_pressure;BME280_temperature;BME280_humidity;BME280_pressure;Samples;Min_cycle;Max_cycle;Signal;HPM_P1;HPM_P2
2023/10/19 00:00:33;;;;;;;11.13;9.20;;;;;;;;;;5031529;28;20408;-59
2023/10/19 00:03:00;;;;;;;12.13;9.82;;;;;;;;;;5028462;28;20965;-59
2023/10/19 00:05:26;;;;;;;12.57;10.57;;;;;;;;;;5023128;28;20414;-59
2023/10/19 00:07:53;;;;;;;12.07;10.23;;;;;;;;;;5023806;28;20768;-59
2023/10/19 00:10:18;;;;;;;12.20;10.40;;;;;;;;;;5019850;28;20403;-59
2023/10/19 00:12:44;;;;;;;15.30;12.13;;;;;;;;;;5025502;28;20453;-59
2023/10/19 00:15:10;;;;;;;11.83;10.27;;;;;;;;;;5030120;28;20973;-59
2023/10/19 00:17:38;;;;;;;14.40;12.13;;;;;;;;;;5029560;28;20465;-59
2023/10/19 00:20:29;;;;;;;13.50;11.75;;;;;;;;;;5028054;28;21571;-59
2023/10/19 00:22:56;;;;;;;15.75;12.68;;;;;;;;;;5026923;28;20894;-59
2023/10/19 00:25:23;;;;;;;13.77;11.00;;;;;;;;;;5030503;28;20407;-59
2023/10/19 00:27:49;;;;;;;15.50;12.68;;;;;;;;;;5024306;28;20943;-59
2023/10/19 00:30:18;;;;;;;15.63;13.20;;;;;;;;;;5018086;28;20415;-59
2023/10/19 00:32:43;;;;;;;10.45;9.07;;;;;;;;;;5023106;28;20410;-59
2023/10/19 00:35:26;;;;;;;11.77;9.90;;;;;;;;;;5010311;28;20403;-59
2023/10/19 00:37:54;;;;;;;15.32;13.15;;;;;;;;;;5027542;28;20771;-59
2023/10/19 00:40:33;;;;;;;15.18;13.57;;;;;;;;;;5026513;28;20422;-59
2023/10/19 00:43:06;;;;;;;10.23;8.88;;;;;;;;;;5028135;28;20481;-59
2023/10/19 00:45:33;;;;;;;14.50;13.00;;;;;;;;;;5032234;28;20469;-59
2023/10/19 00:47:58;;;;;;;14.63;13.05;;;;;;;;;;5027185;28;20442;-59
2023/10/19 00:50:27;;;;;;;16.47;14.33;;;;;;;;;;5024417;28;20922;-59
2023/10/19 00:52:52;;;;;;;15.00;13.02;;;;;;;;;;5029411;28;20826;-59
2023/10/19 00:55:21;;;;;;;16.23;13.40;;;;;;;;;;5023415;28;20408;-59
2023/10/19 00:57:48;;;;;;;14.60;12.75;;;;;;;;;;5026126;28;20917;-60
2023/10/19 01:00:21;;;;;;;19.10;16.10;;;;;;;;;;5016069;28;20909;-59
2023/10/19 01:02:47;;;;;;;16.95;13.98;;;;;;;;;;5036702;28;20514;-60
2023/10/19 01:05:13;;;;;;;16.58;14.80;;;;;;;;;;5040448;28;20838;-60
2023/10/19 01:07:39;;;;;;;18.63;16.05;;;;;;;;;;5064873;28;20398;-59
2023/10/19 01:10:05;;;;;;;13.40;12.00;;;;;;;;;;5044422;28;20403;-60
2023/10/19 01:15:07;;;;;;;14.38;12.90;;;;;;;;;;5066244;28;20483;-59
2023/10/19 01:17:38;;;;;;;17.23;15.45;;;;;;;;;;5059509;28;20403;-59
2023/10/19 01:20:12;;;;;;;17.60;15.75;;;;;;;;;;5064889;28;20485;-59
2023/10/19 01:22:37;;;;;;;15.93;14.23;;;;;;;;;;5066095;28;20800;-59
2023/10/19 01:25:04;;;;;;;18.67;15.87;;;;;;;;;;5063760;28;20483;-59
2023/10/19 01:27:29;;;;;;;16.20;14.38;;;;;;;;;;5050215;28;20489;-59
2023/10/19 01:29:59;;;;;;;17.90;15.73;;;;;;;;;;5030878;28;20452;-59
2023/10/19 01:32:25;;;;;;;12.02;10.80;;;;;;;;;;5028839;28;20399;-59
2023/10/19 01:35:13;;;;;;;16.08;14.10;;;;;;;;;;5018214;28;20396;-59
2023/10/19 01:37:38;;;;;;;15.60;13.93;;;;;;;;;;5010053;28;20445;-59
2023/10/19 01:40:04;;;;;;;11.30;10.10;;;;;;;;;;5001224;28;20528;-59
2023/10/19 01:42:30;;;;;;;15.83;14.23;;;;;;;;;;5016624;28;20430;-59
2023/10/19 01:44:56;;;;;;;19.02;17.00;;;;;;;;;;5032323;28;20482;-59
2023/10/19 01:47:22;;;;;;;16.27;14.57;;;;;;;;;;5028539;28;20872;-59
2023/10/19 01:49:52;;;;;;;15.30;13.70;;;;;;;;;;5030791;28;20391;-59
2023/10/19 01:52:17;;;;;;;14.70;13.10;;;;;;;;;;5034177;28;21505;-59
2023/10/19 01:54:43;;;;;;;15.53;13.93;;;;;;;;;;5030318;28;20716;-59
2023/10/19 01:57:08;;;;;;;17.17;14.90;;;;;;;;;;5029157;28;20816;-59
2023/10/19 01:59:34;;;;;;;9.97;8.20;;;;;;;;;;5030468;28;20453;-59
2023/10/19 02:01:59;;;;;;;11.90;9.80;;;;;;;;;;5000508;28;20412;-59
2023/10/19 02:04:25;;;;;;;18.77;14.77;;;;;;;;;;4997179;28;20428;-59
2023/10/19 02:06:53;;;;;;;14.95;13.35;;;;;;;;;;5003739;28;20440;-59
2023/10/19 02:09:23;;;;;;;13.63;10.90;;;;;;;;;;5008718;28;20397;-59
2023/10/19 02:11:49;;;;;;;12.45;9.98;;;;;;;;;;5006301;28;20497;-59
2023/10/19 02:14:15;;;;;;;12.38;10.73;;;;;;;;;;5005561;28;20400;-59
2023/10/19 02:16:41;;;;;;;15.05;12.38;;;;;;;;;;5008300;28;20779;-59
2023/10/19 02:19:07;;;;;;;12.40;10.40;;;;;;;;;;5006516;28;20406;-59
2023/10/19 02:21:37;;;;;;;13.50;9.60;;;;;;;;;;5005801;28;20415;-59
2023/10/19 02:24:03;;;;;;;14.40;12.15;;;;;;;;;;4999943;28;20421;-59
2023/10/19 02:26:30;;;;;;;13.03;11.03;;;;;;;;;;5001896;28;20445;-59
2023/10/19 02:28:56;;;;;;;13.07;11.05;;;;;;;;;;5000283;28;20426;-59
2023/10/19 02:31:22;;;;;;;15.07;11.57;;;;;;;;;;5006055;28;20402;-59
2023/10/19 02:33:51;;;;;;;15.80;11.82;;;;;;;;;;5008576;28;20408;-59
2023/10/19 02:36:19;;;;;;;21.70;15.95;;;;;;;;;;5005549;28;20399;-59
2023/10/19 02:38:48;;;;;;;13.63;10.98;;;;;;;;;;5006767;28;20780;-59
2023/10/19 02:41:15;;;;;;;13.98;11.70;;;;;;;;;;5007903;28;20760;-59
2023/10/19 02:43:40;;;;;;;19.10;14.38;;;;;;;;;;5005886;28;20432;-59
2023/10/19 02:46:06;;;;;;;13.73;11.77;;;;;;;;;;4998969;28;20413;-60
2023/10/19 02:48:32;;;;;;;13.30;10.80;;;;;;;;;;4999404;28;20419;-59
2023/10/19 02:51:05;;;;;;;14.20;11.10;;;;;;;;;;5000285;28;20413;-59
2023/10/19 02:53:31;;;;;;;13.90;11.13;;;;;;;;;;5005217;28;21552;-59
2023/10/19 02:55:59;;;;;;;13.20;11.20;;;;;;;;;;5005428;28;20409;-59
2023/10/19 02:58:27;;;;;;;15.35;12.23;;;;;;;;;;5007330;28;20402;-59
2023/10/19 03:00:53;;;;;;;12.18;10.25;;;;;;;;;;5015231;28;20411;-59
2023/10/19 03:03:18;;;;;;;11.63;9.40;;;;;;;;;;5024472;28;20778;-59
2023/10/19 03:05:43;;;;;;;14.23;11.70;;;;;;;;;;5027244;28;20410;-59
2023/10/19 03:08:09;;;;;;;14.50;12.40;;;;;;;;;;5019310;28;20398;-59
2023/10/19 03:10:41;;;;;;;15.90;12.60;;;;;;;;;;5016865;28;20482;-59
2023/10/19 03:13:07;;;;;;;16.85;13.25;;;;;;;;;;5017443;28;20469;-59
2023/10/19 03:15:33;;;;;;;14.40;11.80;;;;;;;;;;5026614;28;20413;-59
2023/10/19 03:18:00;;;;;;;16.48;12.63;;;;;;;;;;5024708;28;20777;-59
2023/10/19 03:20:27;;;;;;;13.45;11.18;;;;;;;;;;5024751;28;20391;-59
2023/10/19 03:22:52;;;;;;;12.93;11.40;;;;;;;;;;5022347;28;20437;-59
2023/10/19 03:28:08;;;;;;;15.75;12.43;;;;;;;;;;5024794;28;20457;-60
2023/10/19 03:30:38;;;;;;;11.80;10.05;;;;;;;;;;5024114;28;20389;-59
2023/10/19 03:33:04;;;;;;;15.40;11.63;;;;;;;;;;5016032;28;20411;-59
2023/10/19 03:35:30;;;;;;;9.13;7.95;;;;;;;;;;5017040;28;20399;-59
2023/10/19 03:37:58;;;;;;;8.90;7.10;;;;;;;;;;5031772;28;20458;-59
2023/10/19 03:40:31;;;;;;;11.45;8.50;;;;;;;;;;5043199;28;20475;-59
2023/10/19 03:42:57;;;;;;;9.07;7.47;;;;;;;;;;5047151;28;20512;-59
2023/10/19 03:45:24;;;;;;;10.05;7.82;;;;;;;;;;5045839;28;20369;-59
2023/10/19 03:47:50;;;;;;;12.98;9.30;;;;;;;;;;5045552;28;20492;-59
2023/10/19 03:50:20;;;;;;;9.88;7.50;;;;;;;;;;5046667;28;20405;-59
2023/10/19 03:52:45;;;;;;;8.90;6.80;;;;;;;;;;5047146;28;20420;-59
2023/10/19 03:55:14;;;;;;;9.65;6.30;;;;;;;;;;5043794;28;20904;-59
2023/10/19 03:57:41;;;;;;;10.98;8.65;;;;;;;;;;5039424;28;20421;-59
2023/10/19 04:00:11;;;;;;;8.82;6.60;;;;;;;;;;5023641;28;20430;-58
2023/10/19 04:02:38;;;;;;;8.15;5.70;;;;;;;;;;5030553;28;20403;-59
2023/10/19 04:08:15;;;;;;;13.25;8.30;;;;;;;;;;5027873;28;20415;-59
2023/10/19 04:10:44;;;;;;;10.65;7.70;;;;;;;;;;5027343;28;20480;-58
2023/10/19 04:13:09;;;;;;;10.25;7.18;;;;;;;;;;5022737;28;20418;-58
2023/10/19 04:15:36;;;;;;;11.93;8.27;;;;;;;;;;5022594;28;20880;-58
2023/10/19 04:18:02;;;;;;;10.73;5.50;;;;;;;;;;5019505;28;20411;-59
2023/10/19 04:20:29;;;;;;;10.52;5.97;;;;;;;;;;5025290;28;20773;-58
2023/10/19 04:22:55;;;;;;;9.98;6.45;;;;;;;;;;5014162;28;20572;-58
2023/10/19 04:25:25;;;;;;;12.90;7.30;;;;;;;;;;5025761;28;20948;-58
2023/10/19 04:27:51;;;;;;;10.27;7.30;;;;;;;;;;5026458;28;20404;-58
2023/10/19 04:30:16;;;;;;;10.73;6.57;;;;;;;;;;5029702;28;20414;-58
2023/10/19 04:32:43;;;;;;;9.90;6.20;;;;;;;;;;5028869;28;20947;-58
2023/10/19 04:35:09;;;;;;;9.97;6.40;;;;;;;;;;5022652;28;20409;-58
2023/10/19 04:37:34;;;;;;;8.68;5.90;;;;;;;;;;5021409;28;21164;-58
2023/10/19 04:40:00;;;;;;;11.77;7.33;;;;;;;;;;5023195;28;20448;-58
2023/10/19 04:42:27;;;;;;;9.57;6.72;;;;;;;;;;5023117;28;20403;-58
2023/10/19 04:44:52;;;;;;;8.23;6.13;;;;;;;;;;5027045;28;20403;-58
2023/10/19 04:47:18;;;;;;;9.87;6.80;;;;;;;;;;5031903;28;20770;-58
2023/10/19 04:49:43;;;;;;;8.90;6.77;;;;;;;;;;5027032;28;20499;-58
2023/10/19 04:52:09;;;;;;;10.65;6.95;;;;;;;;;;5027812;28;21228;-59
2023/10/19 04:54:34;;;;;;;9.53;7.40;;;;;;;;;;5031121;28;20746;-58
2023/10/19 04:57:00;;;;;;;10.87;7.40;;;;;;;;;;5025548;28;20408;-58
2023/10/19 04:59:25;;;;;;;9.43;7.25;;;;;;;;;;5018786;28;20528;-58
2023/10/19 05:01:51;;;;;;;13.43;8.57;;;;;;;;;;5022304;28;20417;-58
2023/10/19 05:04:17;;;;;;;13.23;9.40;;;;;;;;;;5022594;28;20415;-58
2023/10/19 05:06:42;;;;;;;11.35;8.40;;;;;;;;;;5027675;28;20391;-58
2023/10/19 05:09:08;;;;;;;10.57;8.20;;;;;;;;;;5027455;28;20418;-59
2023/10/19 05:11:33;;;;;;;11.70;7.90;;;;;;;;;;5031420;28;20399;-58
2023/10/19 05:13:58;;;;;;;11.30;7.90;;;;;;;;;;5026138;28;20894;-58
2023/10/19 05:16:23;;;;;;;10.40;7.67;;;;;;;;;;5027141;28;20486;-58
2023/10/19 05:18:49;;;;;;;11.40;7.63;;;;;;;;;;5029162;28;20402;-58
2023/10/19 05:21:14;;;;;;;12.17;9.03;;;;;;;;;;5020100;28;20404;-58
2023/10/19 05:23:39;;;;;;;8.30;6.87;;;;;;;;;;5018739;28;20500;-58
2023/10/19 05:26:06;;;;;;;9.77;7.00;;;;;;;;;;5020522;28;20402;-59
2023/10/19 05:28:31;;;;;;;10.05;7.45;;;;;;;;;;5028263;28;20846;-58
2023/10/19 05:30:58;;;;;;;9.60;7.20;;;;;;;;;;5008827;28;20413;-58
2023/10/19 05:33:23;;;;;;;9.25;7.35;;;;;;;;;;5028129;28;20500;-58
2023/10/19 05:35:49;;;;;;;8.77;7.27;;;;;;;;;;5030383;28;20888;-58
2023/10/19 05:38:15;;;;;;;12.10;7.37;;;;;;;;;;5007885;28;20405;-59
2023/10/19 05:40:42;;;;;;;8.98;7.05;;;;;;;;;;5030362;28;20446;-58
2023/10/19 05:43:08;;;;;;;10.43;7.80;;;;;;;;;;5030829;28;20427;-58
2023/10/19 05:45:36;;;;;;;10.30;7.13;;;;;;;;;;5036707;28;20399;-58
2023/10/19 05:48:03;;;;;;;7.28;4.80;;;;;;;;;;5045832;28;20407;-59
2023/10/19 05:50:29;;;;;;;9.30;7.37;;;;;;;;;;5063172;28;20400;-58
2023/10/19 05:52:54;;;;;;;9.77;7.07;;;;;;;;;;5062196;28;20404;-58
2023/10/19 05:55:21;;;;;;;10.33;7.90;;;;;;;;;;5065167;28;20399;-58
2023/10/19 05:57:46;;;;;;;10.30;7.13;;;;;;;;;;5064767;28;20404;-58
2023/10/19 06:00:12;;;;;;;11.70;7.63;;;;;;;;;;5058352;28;20409;-58
2023/10/19 06:02:38;;;;;;;9.20;7.20;;;;;;;;;;5048781;28;20404;-58
2023/10/19 06:05:05;;;;;;;11.15;7.50;;;;;;;;;;5053234;28;20406;-58
2023/10/19 06:07:31;;;;;;;13.52;8.05;;;;;;;;;;5055060;28;20816;-58
2023/10/19 06:09:56;;;;;;;13.10;8.23;;;;;;;;;;5050012;28;20415;-58
2023/10/19 06:12:21;;;;;;;9.63;7.70;;;;;;;;;;5052744;28;20455;-58
2023/10/19 06:14:46;;;;;;;12.70;7.95;;;;;;;;;;5055290;28;20499;-58
2023/10/19 06:17:18;;;;;;;11.35;7.85;;;;;;;;;;5052470;28;20453;-58
2023/10/19 06:19:45;;;;;;;12.33;7.80;;;;;;;;;;5053960;28;20407;-58
2023/10/19 06:22:12;;;;;;;9.38;6.97;;;;;;;;;;5051233;28;20403;-58
2023/10/19 06:24:37;;;;;;;9.75;7.25;;;;;;;;;;5056412;28;20450;-58
2023/10/19 06:27:03;;;;;;;9.37;5.80;;;;;;;;;;5034490;28;20415;-58
2023/10/19 06:29:29;;;;;;;10.95;7.22;;;;;;;;;;5052570;28;20389;-58
2023/10/19 06:31:54;;;;;;;12.97;7.83;;;;;;;;;;5039712;28;20420;-58
2023/10/19 06:34:20;;;;;;;11.53;7.70;;;;;;;;;;5051276;28;20488;-58
2023/10/19 06:36:45;;;;;;;14.50;9.27;;;;;;;;;;5051725;28;20463;-58
2023/10/19 06:39:13;;;;;;;10.90;6.60;;;;;;;;;;5050778;28;20412;-58
2023/10/19 06:41:38;;;;;;;11.40;6.85;;;;;;;;;;5048448;28;21191;-58
2023/10/19 06:44:04;;;;;;;9.37;6.00;;;;;;;;;;5043746;28;20443;-58
2023/10/19 06:46:30;;;;;;;8.18;5.22;;;;;;;;;;5034063;28;20394;-57
2023/10/19 06:49:00;;;;;;;11.45;7.75;;;;;;;;;;5047866;28;20409;-57
2023/10/19 06:51:26;;;;;;;9.18;6.28;;;;;;;;;;5050804;28;20442;-58
2023/10/19 06:53:51;;;;;;;8.30;5.78;;;;;;;;;;5047700;28;20477;-58
2023/10/19 06:56:17;;;;;;;10.18;6.15;;;;;;;;;;5053965;28;20946;-58
2023/10/19 06:58:42;;;;;;;10.27;6.43;;;;;;;;;;5051730;28;20415;-58
2023/10/19 07:01:08;;;;;;;9.97;6.67;;;;;;;;;;5050461;28;20423;-58
2023/10/19 07:03:33;;;;;;;10.35;7.15;;;;;;;;;;5056649;28;20969;-58
2023/10/19 07:05:59;;;;;;;9.80;6.47;;;;;;;;;;5052266;28;20415;-58
2023/10/19 07:08:27;;;;;;;8.43;5.75;;;;;;;;;;5049781;28;20393;-58
2023/10/19 07:10:52;;;;;;;9.63;7.15;;;;;;;;;;5049106;28;20883;-58
2023/10/19 07:13:17;;;;;;;10.33;6.27;;;;;;;;;;5053762;28;20430;-58
2023/10/19 07:15:44;;;;;;;9.23;5.80;;;;;;;;;;5052830;28;20398;-58
2023/10/19 07:18:10;;;;;;;7.70;6.03;;;;;;;;;;5041461;28;20437;-57
2023/10/19 07:20:38;;;;;;;8.47;5.87;;;;;;;;;;5049343;28;20396;-57
2023/10/19 07:23:09;;;;;;;10.95;5.72;;;;;;;;;;5048889;28;20423;-58
2023/10/19 07:25:42;;;;;;;10.80;5.75;;;;;;;;;;5056117;28;20392;-58
2023/10/19 07:28:09;;;;;;;10.47;6.40;;;;;;;;;;5050638;28;20772;-58
2023/10/19 07:30:35;;;;;;;11.00;7.73;;;;;;;;;;5051114;28;20484;-58
2023/10/19 07:33:00;;;;;;;9.48;6.18;;;;;;;;;;5049901;28;20492;-58
2023/10/19 07:35:26;;;;;;;9.20;5.73;;;;;;;;;;5049164;28;21058;-58
2023/10/19 07:37:52;;;;;;;9.45;5.72;;;;;;;;;;5063185;28;20986;-58
2023/10/19 07:40:17;;;;;;;8.40;5.47;;;;;;;;;;5063265;28;20528;-58
2023/10/19 07:42:43;;;;;;;9.60;5.53;;;;;;;;;;5058349;28;20791;-58
2023/10/19 07:45:11;;;;;;;8.80;5.30;;;;;;;;;;5053238;28;20407;-58
2023/10/19 07:47:39;;;;;;;10.27;5.70;;;;;;;;;;5063523;28;20892;-57
2023/10/19 07:50:05;;;;;;;10.63;6.97;;;;;;;;;;5060838;28;20392;-58
2023/10/19 07:52:30;;;;;;;9.60;5.83;;;;;;;;;;5060559;28;20756;-58
2023/10/19 07:54:56;;;;;;;8.83;5.20;;;;;;;;;;5063165;28;20408;-58
2023/10/19 07:57:21;;;;;;;10.55;4.95;;;;;;;;;;5056481;28;20841;-58
2023/10/19 07:59:47;;;;;;;11.03;6.17;;;;;;;;;;5056121;28;20485;-58
2023/10/19 08:02:13;;;;;;;9.10;4.77;;;;;;;;;;5062258;28;20396;-58
2023/10/19 08:04:38;;;;;;;9.35;5.40;;;;;;;;;;5061975;28;20524;-58
2023/10/19 08:07:04;;;;;;;7.67;5.17;;;;;;;;;;5057615;28;20403;-58
2023/10/19 08:09:35;;;;;;;10.93;5.05;;;;;;;;;;5062661;28;20424;-58
2023/10/19 08:12:01;;;;;;;11.25;5.82;;;;;;;;;;5062344;28;20506;-59
2023/10/19 08:14:26;;;;;;;11.10;5.68;;;;;;;;;;5060330;28;20483;-58
2023/10/19 08:16:52;;;;;;;10.32;5.65;;;;;;;;;;5060903;28;20482;-58
2023/10/19 08:19:18;;;;;;;10.10;5.20;;;;;;;;;;5053135;28;20445;-58
2023/10/19 08:21:43;;;;;;;8.50;5.18;;;;;;;;;;5061995;28;20396;-58
2023/10/19 08:24:13;;;;;;;8.88;4.47;;;;;;;;;;5056435;28;21020;-58
2023/10/19 08:26:39;;;;;;;8.50;5.05;;;;;;;;;;5062500;28;20460;-58
2023/10/19 08:29:12;;;;;;;9.55;4.65;;;;;;;;;;5059749;28;20399;-58
2023/10/19 08:31:39;;;;;;;9.55;4.53;;;;;;;;;;5040174;28;20437;-58
2023/10/19 08:34:05;;;;;;;9.07;4.32;;;;;;;;;;5054630;28;20461;-58
2023/10/19 08:36:30;;;;;;;8.73;3.97;;;;;;;;;;5061607;28;20482;-58
2023/10/19 08:38:56;;;;;;;7.72;3.78;;;;;;;;;;5060985;28;20581;-58
2023/10/19 08:41:21;;;;;;;9.43;4.17;;;;;;;;;;5058599;28;20395;-58
2023/10/19 08:43:48;;;;;;;8.93;4.70;;;;;;;;;;5062756;28;20502;-58
2023/10/19 08:46:14;;;;;;;8.27;5.32;;;;;;;;;;5061449;28;20427;-58
2023/10/19 08:48:40;;;;;;;8.10;4.17;;;;;;;;;;5057710;28;20933;-58
2023/10/19 08:51:09;;;;;;;13.38;4.03;;;;;;;;;;5062168;28;20574;-58
2023/10/19 08:53:39;;;;;;;8.40;3.50;;;;;;;;;;5063074;28;20398;-58
2023/10/19 08:56:06;;;;;;;10.35;4.28;;;;;;;;;;5057601;28;20400;-58
2023/10/19 08:58:31;;;;;;;11.88;7.22;;;;;;;;;;5050102;28;20549;-58
2023/10/19 09:00:57;;;;;;;8.40;4.13;;;;;;;;;;5062910;28;20480;-58
2023/10/19 09:03:24;;;;;;;8.20;3.93;;;;;;;;;;5060040;28;20416;-58
2023/10/19 09:05:49;;;;;;;7.82;3.10;;;;;;;;;;5058297;28;20411;-58
2023/10/19 09:08:16;;;;;;;8.80;2.87;;;;;;;;;;5062315;28;20406;-58
2023/10/19 09:10:43;;;;;;;8.90;4.03;;;;;;;;;;5061734;28;20408;-56
2023/10/19 09:13:09;;;;;;;9.50;3.20;;;;;;;;;;5041080;28;20742;-58
2023/10/19 09:15:35;;;;;;;9.32;3.00;;;;;;;;;;5050581;28;20401;-58
2023/10/19 09:18:12;;;;;;;7.82;2.10;;;;;;;;;;5060502;28;20405;-60
2023/10/19 09:20:37;;;;;;;6.80;2.30;;;;;;;;;;5063792;28;20400;-58
2023/10/19 09:23:03;;;;;;;8.63;2.33;;;;;;;;;;5062382;28;20455;-58
2023/10/19 09:25:29;;;;;;;10.93;2.90;;;;;;;;;;5065707;28;20921;-58
2023/10/19 09:27:54;;;;;;;9.30;2.53;;;;;;;;;;5065883;28;20387;-57
2023/10/19 09:30:19;;;;;;;8.37;2.40;;;;;;;;;;5059341;28;20738;-58
2023/10/19 09:32:47;;;;;;;8.13;2.80;;;;;;;;;;5066087;28;20447;-58
2023/10/19 09:35:15;;;;;;;9.63;2.63;;;;;;;;;;5065819;28;20481;-58
2023/10/19 09:37:41;;;;;;;7.75;2.38;;;;;;;;;;5043453;28;20403;-58
2023/10/19 09:40:11;;;;;;;7.40;2.67;;;;;;;;;;5064036;28;20412;-58
2023/10/19 09:42:37;;;;;;;10.52;2.63;;;;;;;;;;5064750;28;20476;-58
2023/10/19 09:45:05;;;;;;;11.30;3.40;;;;;;;;;;5062313;28;20409;-58
2023/10/19 09:47:30;;;;;;;8.63;2.75;;;;;;;;;;5058625;28;20409;-58
2023/10/19 09:49:56;;;;;;;10.27;2.73;;;;;;;;;;5048356;28;20411;-58
2023/10/19 09:52:22;;;;;;;7.28;2.83;;;;;;;;;;5064672;28;20483;-58
2023/10/19 09:54:52;;;;;;;7.87;2.60;;;;;;;;;;5060648;28;20414;-58
2023/10/19 09:57:19;;;;;;;7.97;2.43;;;;;;;;;;5037448;28;20396;-58
2023/10/19 09:59:46;;;;;;;10.30;2.53;;;;;;;;;;5046789;28;20407;-57
2023/10/19 10:02:13;;;;;;;8.70;2.50;;;;;;;;;;5047625;28;20413;-58
2023/10/19 10:04:38;;;;;;;10.60;2.80;;;;;;;;;;5048689;28;20416;-58
2023/10/19 10:07:06;;;;;;;9.53;3.00;;;;;;;;;;5048792;28;20409;-58
2023/10/19 10:09:33;;;;;;;9.07;2.40;;;;;;;;;;5048593;28;20397;-58
2023/10/19 10:12:14;;;;;;;9.18;2.45;;;;;;;;;;5045676;28;20424;-57
2023/10/19 10:14:40;;;;;;;8.45;2.53;;;;;;;;;;5046711;28;20488;-58
2023/10/19 10:17:05;;;;;;;6.47;2.10;;;;;;;;;;5045573;28;20826;-58
2023/10/19 10:19:30;;;;;;;11.80;2.63;;;;;;;;;;5044308;28;20912;-58
2023/10/19 10:22:16;;;;;;;8.40;2.20;;;;;;;;;;5048434;28;20417;-58
2023/10/19 10:24:41;;;;;;;8.80;1.88;;;;;;;;;;5048028;28;20488;-58
2023/10/19 10:27:06;;;;;;;8.10;2.50;;;;;;;;;;5045578;28;20496;-58
2023/10/19 10:29:32;;;;;;;8.20;2.00;;;;;;;;;;5044580;28;20425;-58
2023/10/19 10:31:58;;;;;;;7.03;1.90;;;;;;;;;;5046120;28;20862;-58
2023/10/19 10:34:34;;;;;;;6.95;1.75;;;;;;;;;;5048198;28;20824;-58
2023/10/19 10:37:02;;;;;;;8.23;1.92;;;;;;;;;;5045187;28;20404;-58
2023/10/19 10:39:27;;;;;;;8.25;1.90;;;;;;;;;;5038432;28;20808;-58
2023/10/19 10:41:56;;;;;;;7.67;1.80;;;;;;;;;;5048098;28;20402;-58
2023/10/19 10:44:34;;;;;;;8.48;1.75;;;;;;;;;;5046938;28;20382;-59
2023/10/19 10:47:00;;;;;;;9.35;2.00;;;;;;;;;;5046190;28;20424;-58
2023/10/19 10:49:25;;;;;;;9.07;2.33;;;;;;;;;;5046433;28;20887;-58
2023/10/19 10:51:51;;;;;;;7.70;1.97;;;;;;;;;;5048473;28;20393;-58
2023/10/19 10:54:16;;;;;;;8.27;2.10;;;;;;;;;;5044195;28;20420;-58
2023/10/19 10:56:41;;;;;;;8.43;2.10;;;;;;;;;;5029326;28;20444;-58
2023/10/19 10:59:13;;;;;;;10.43;2.23;;;;;;;;;;5047142;28;20405;-59
2023/10/19 11:01:38;;;;;;;10.17;2.30;;;;;;;;;;5046898;28;20401;-58
2023/10/19 11:04:05;;;;;;;10.53;2.20;;;;;;;;;;5044953;28;20417;-59
2023/10/19 11:06:30;;;;;;;10.00;2.17;;;;;;;;;;5043542;28;20794;-58
2023/10/19 11:08:56;;;;;;;8.77;2.33;;;;;;;;;;5047823;28;20953;-59
2023/10/19 11:11:21;;;;;;;12.37;2.30;;;;;;;;;;5043846;28;20484;-58
2023/10/19 11:13:47;;;;;;;10.02;2.40;;;;;;;;;;5047430;28;20394;-58
2023/10/19 11:16:14;;;;;;;10.10;2.50;;;;;;;;;;5047230;28;20397;-58
2023/10/19 11:18:40;;;;;;;8.77;2.22;;;;;;;;;;5044710;28;20428;-58
2023/10/19 11:21:07;;;;;;;11.02;2.03;;;;;;;;;;5046825;28;20531;-59
2023/10/19 11:23:38;;;;;;;9.68;2.20;;;;;;;;;;5047751;28;20413;-58
2023/10/19 11:26:05;;;;;;;7.40;1.77;;;;;;;;;;5046876;28;20412;-58
2023/10/19 11:28:31;;;;;;;11.55;2.55;;;;;;;;;;5042447;28;20467;-58
2023/10/19 11:31:10;;;;;;;7.45;1.80;;;;;;;;;;5042986;28;20492;-58
2023/10/19 11:33:36;;;;;;;7.80;1.90;;;;;;;;;;5039903;28;20479;-58
2023/10/19 11:36:02;;;;;;;9.20;2.10;;;;;;;;;;5045425;28;20524;-58
2023/10/19 11:38:27;;;;;;;8.47;2.00;;;;;;;;;;5046642;28;20456;-58
2023/10/19 11:40:52;;;;;;;8.18;2.30;;;;;;;;;;5047585;28;20401;-58
2023/10/19 11:43:18;;;;;;;8.95;2.30;;;;;;;;;;5045574;28;20410;-58
2023/10/19 11:45:43;;;;;;;8.97;2.10;;;;;;;;;;5045737;28;20416;-58
2023/10/19 11:48:08;;;;;;;8.83;2.20;;;;;;;;;;5047365;28;20483;-58
2023/10/19 11:50:34;;;;;;;7.57;2.00;;;;;;;;;;5045661;28;20402;-58
2023/10/19 11:52:59;;;;;;;6.10;1.80;;;;;;;;;;5042585;28;20942;-58
2023/10/19 11:55:24;;;;;;;6.23;1.80;;;;;;;;;;5040135;28;20405;-59
2023/10/19 11:57:50;;;;;;;7.97;2.40;;;;;;;;;;5042407;28;20415;-58
2023/10/19 12:00:24;;;;;;;8.73;2.33;;;;;;;;;;5042287;28;20903;-58
2023/10/19 12:02:49;;;;;;;8.20;1.75;;;;;;;;;;5041292;28;20401;-58
2023/10/19 12:05:17;;;;;;;8.63;2.22;;;;;;;;;;5039333;28;21357;-58
2023/10/19 12:07:44;;;;;;;7.80;2.20;;;;;;;;;;5043883;28;20488;-58
2023/10/19 12:10:10;;;;;;;7.47;1.98;;;;;;;;;;5043057;28;20487;-58
2023/10/19 12:12:36;;;;;;;10.07;2.43;;;;;;;;;;5039996;28;20903;-58
2023/10/19 12:15:02;;;;;;;6.70;2.00;;;;;;;;;;5039198;28;20403;-58
2023/10/19 12:17:27;;;;;;;8.57;1.95;;;;;;;;;;5043927;28;20444;-58
2023/10/19 12:19:54;;;;;;;9.57;2.38;;;;;;;;;;5039765;28;20737;-58
2023/10/19 12:22:20;;;;;;;13.00;2.70;;;;;;;;;;5039924;28;20413;-58
2023/10/19 12:24:46;;;;;;;6.18;1.98;;;;;;;;;;5041585;28;20830;-58
2023/10/19 12:27:13;;;;;;;8.87;2.40;;;;;;;;;;5041782;28;20862;-58
2023/10/19 12:29:39;;;;;;;10.27;2.50;;;;;;;;;;5041562;28;20396;-58
2023/10/19 12:32:04;;;;;;;9.40;2.00;;;;;;;;;;5041104;28;20413;-58
2023/10/19 12:34:30;;;;;;;7.85;2.15;;;;;;;;;;5040406;28;20405;-58
2023/10/19 12:36:58;;;;;;;7.10;2.30;;;;;;;;;;5046717;28;20410;-58
2023/10/19 12:39:35;;;;;;;8.20;1.98;;;;;;;;;;5045972;28;20385;-58
2023/10/19 12:42:01;;;;;;;8.85;2.35;;;;;;;;;;5039790;28;20433;-58
2023/10/19 12:44:28;;;;;;;7.47;2.30;;;;;;;;;;5041581;28;20560;-58
2023/10/19 12:46:54;;;;;;;7.75;2.13;;;;;;;;;;5045936;28;20397;-58
2023/10/19 12:49:25;;;;;;;8.70;2.10;;;;;;;;;;5046954;28;20413;-58
2023/10/19 12:51:51;;;;;;;8.15;2.30;;;;;;;;;;5050171;28;20440;-58
2023/10/19 12:54:17;;;;;;;8.98;2.50;;;;;;;;;;5049542;28;20923;-58
2023/10/19 12:56:43;;;;;;;9.32;2.65;;;;;;;;;;5050156;28;20401;-58
2023/10/19 12:59:08;;;;;;;7.83;2.40;;;;;;;;;;5048188;28;21338;-58
2023/10/19 13:01:35;;;;;;;8.70;2.67;;;;;;;;;;5062179;28;20424;-57
2023/10/19 13:04:01;;;;;;;7.07;2.45;;;;;;;;;;5065537;28;20465;-59
2023/10/19 13:06:29;;;;;;;6.93;2.30;;;;;;;;;;5061228;28;20383;-58
2023/10/19 13:08:54;;;;;;;10.27;2.17;;;;;;;;;;5073104;28;20429;-57
2023/10/19 13:11:20;;;;;;;6.90;2.10;;;;;;;;;;5067187;28;20915;-58
2023/10/19 13:13:45;;;;;;;9.20;2.20;;;;;;;;;;5067066;28;20399;-58
2023/10/19 13:16:11;;;;;;;6.45;2.10;;;;;;;;;;5060917;28;20416;-58
2023/10/19 13:18:36;;;;;;;9.20;2.30;;;;;;;;;;5063067;28;20906;-58
2023/10/19 13:21:16;;;;;;;8.30;2.03;;;;;;;;;;5066187;28;20767;-58
2023/10/19 13:23:43;;;;;;;9.70;1.88;;;;;;;;;;5062472;28;20439;-58
2023/10/19 13:26:17;;;;;;;9.40;2.53;;;;;;;;;;5064164;28;20422;-58
2023/10/19 13:28:42;;;;;;;7.82;2.05;;;;;;;;;;5065244;28;20407;-58
2023/10/19 13:31:09;;;;;;;10.63;2.73;;;;;;;;;;5056820;28;20418;-58
2023/10/19 13:33:34;;;;;;;7.53;2.08;;;;;;;;;;5022354;28;20410;-58
2023/10/19 13:35:59;;;;;;;7.93;2.20;;;;;;;;;;5032000;28;20419;-58
2023/10/19 13:38:25;;;;;;;10.23;2.50;;;;;;;;;;5010362;28;20395;-58
2023/10/19 13:40:50;;;;;;;9.18;2.40;;;;;;;;;;5035633;28;20416;-58
2023/10/19 13:43:17;;;;;;;8.13;2.20;;;;;;;;;;5032490;28;20476;-58
2023/10/19 13:45:43;;;;;;;10.50;2.20;;;;;;;;;;5042058;28;20410;-57
2023/10/19 13:48:09;;;;;;;7.90;2.17;;;;;;;;;;5036752;28;20515;-58
2023/10/19 13:50:35;;;;;;;7.80;2.30;;;;;;;;;;5037033;28;20419;-58
2023/10/19 13:53:00;;;;;;;9.87;2.73;;;;;;;;;;5034357;28;20404;-58
2023/10/19 13:55:27;;;;;;;9.67;2.40;;;;;;;;;;5032237;28;20406;-58
2023/10/19 13:57:52;;;;;;;11.95;2.70;;;;;;;;;;5032100;28;20930;-58
2023/10/19 14:00:30;;;;;;;9.27;2.57;;;;;;;;;;5023164;28;20512;-58
2023/10/19 14:02:55;;;;;;;8.02;2.70;;;;;;;;;;5034898;28;20520;-58
2023/10/19 14:05:22;;;;;;;7.73;2.50;;;;;;;;;;5031733;28;20839;-58
2023/10/19 14:07:48;;;;;;;9.63;2.60;;;;;;;;;;5037147;28;20517;-58
2023/10/19 14:10:13;;;;;;;8.20;2.33;;;;;;;;;;5031471;28;20407;-58
2023/10/19 14:12:42;;;;;;;8.10;2.37;;;;;;;;;;5032362;28;20426;-58
2023/10/19 14:15:15;;;;;;;9.27;2.40;;;;;;;;;;5035829;28;20478;-58
2023/10/19 14:17:40;;;;;;;10.10;2.40;;;;;;;;;;5029215;28;20422;-58
2023/10/19 14:20:06;;;;;;;8.48;2.35;;;;;;;;;;5022537;28;20403;-59
2023/10/19 14:22:34;;;;;;;7.60;2.13;;;;;;;;;;5026149;28;20470;-57
2023/10/19 14:25:00;;;;;;;9.40;2.30;;;;;;;;;;5027304;28;20486;-58
2023/10/19 14:27:25;;;;;;;7.67;1.93;;;;;;;;;;5029625;28;20859;-58
2023/10/19 14:29:50;;;;;;;9.67;2.37;;;;;;;;;;5031139;28;20447;-58
2023/10/19 14:32:15;;;;;;;8.77;2.27;;;;;;;;;;5030562;28;20442;-58
2023/10/19 14:34:42;;;;;;;9.10;2.30;;;;;;;;;;5028626;28;20402;-58
2023/10/19 14:37:08;;;;;;;8.65;2.50;;;;;;;;;;5031296;28;20601;-58
2023/10/19 14:39:33;;;;;;;8.88;2.30;;;;;;;;;;5032075;28;20877;-58